sensor_id;sensor_type;location;lat;lon;timestamp;P1;durP1;ratioP1;P2;durP2;ratioP2
64601;SDS011;68371;42.630;23.192;2023-03-19T00:00:04;11.27;;;4.97;;
64601;SDS011;68371;42.630;23.192;2023-03-19T00:02:33;9.75;;;4.63;;
64601;SDS011;68371;42.630;23.192;2023-03-19T00:05:02;9.85;;;4.72;;
64601;SDS011;68371;42.630;23.192;2023-03-19T00:07:31;10.90;;;5.20;;
64601;SDS011;68371;42.630;23.192;2023-03-19T00:09:57;11.80;;;5.30;;
64601;SDS011;68371;42.630;23.192;2023-03-19T00:12:24;9.40;;;5.10;;
64601;SDS011;68371;42.630;23.192;2023-03-19T00:14:51;17.98;;;7.57;;
64601;SDS011;68371;42.630;23.192;2023-03-19T00:17:17;10.82;;;5.65;;
64601;SDS011;68371;42.630;23.192;2023-03-19T00:19:44;13.75;;;5.93;;
64601;SDS011;68371;42.630;23.192;2023-03-19T00:22:11;10.20;;;5.25;;
64601;SDS011;68371;42.630;23.192;2023-03-19T00:24:39;12.52;;;6.05;;
64601;SDS011;68371;42.630;23.192;2023-03-19T00:27:08;12.85;;;6.60;;
64601;SDS011;68371;42.630;23.192;2023-03-19T00:29:35;10.90;;;5.80;;
64601;SDS011;68371;42.630;23.192;2023-03-19T00:32:03;14.15;;;6.55;;
64601;SDS011;68371;42.630;23.192;2023-03-19T00:34:31;14.45;;;6.65;;
64601;SDS011;68371;42.630;23.192;2023-03-19T00:36:58;16.15;;;7.35;;
64601;SDS011;68371;42.630;23.192;2023-03-19T00:39:24;15.68;;;8.45;;
64601;SDS011;68371;42.630;23.192;2023-03-19T00:41:52;20.52;;;9.70;;
64601;SDS011;68371;42.630;23.192;2023-03-19T00:44:19;14.57;;;8.68;;
64601;SDS011;68371;42.630;23.192;2023-03-19T00:46:46;16.27;;;7.13;;
64601;SDS011;68371;42.630;23.192;2023-03-19T00:49:12;14.88;;;6.72;;
64601;SDS011;68371;42.630;23.192;2023-03-19T00:51:39;14.68;;;5.60;;
64601;SDS011;68371;42.630;23.192;2023-03-19T00:54:10;10.43;;;5.25;;
64601;SDS011;68371;42.630;23.192;2023-03-19T00:56:37;20.73;;;5.22;;
64601;SDS011;68371;42.630;23.192;2023-03-19T00:59:07;12.15;;;5.40;;
64601;SDS011;68371;42.630;23.192;2023-03-19T01:01:35;11.95;;;5.45;;
64601;SDS011;68371;42.630;23.192;2023-03-19T01:04:02;14.43;;;5.57;;
64601;SDS011;68371;42.630;23.192;2023-03-19T01:06:29;13.68;;;5.45;;
64601;SDS011;68371;42.630;23.192;2023-03-19T01:08:56;11.73;;;5.85;;
64601;SDS011;68371;42.630;23.192;2023-03-19T01:11:22;12.57;;;5.38;;
64601;SDS011;68371;42.630;23.192;2023-03-19T01:13:49;27.45;;;10.48;;
64601;SDS011;68371;42.630;23.192;2023-03-19T01:16:17;18.13;;;6.28;;
64601;SDS011;68371;42.630;23.192;2023-03-19T01:18:44;12.85;;;5.35;;
64601;SDS011;68371;42.630;23.192;2023-03-19T01:21:11;10.98;;;4.95;;
64601;SDS011;68371;42.630;23.192;2023-03-19T01:23:38;11.93;;;4.20;;
64601;SDS011;68371;42.630;23.192;2023-03-19T01:26:07;9.65;;;4.20;;
64601;SDS011;68371;42.630;23.192;2023-03-19T01:28:34;12.73;;;3.90;;
64601;SDS011;68371;42.630;23.192;2023-03-19T01:31:03;9.35;;;3.92;;
64601;SDS011;68371;42.630;23.192;2023-03-19T01:33:33;11.83;;;3.60;;
64601;SDS011;68371;42.630;23.192;2023-03-19T01:36:00;7.35;;;3.88;;
64601;SDS011;68371;42.630;23.192;2023-03-19T01:38:28;7.07;;;3.55;;
64601;SDS011;68371;42.630;23.192;2023-03-19T01:40:55;7.57;;;3.75;;
64601;SDS011;68371;42.630;23.192;2023-03-19T01:43:23;8.38;;;3.90;;
64601;SDS011;68371;42.630;23.192;2023-03-19T01:45:51;10.55;;;4.43;;
64601;SDS011;68371;42.630;23.192;2023-03-19T01:48:25;13.30;;;5.45;;
64601;SDS011;68371;42.630;23.192;2023-03-19T01:50:58;10.07;;;3.90;;
64601;SDS011;68371;42.630;23.192;2023-03-19T01:53:27;8.30;;;4.35;;
64601;SDS011;68371;42.630;23.192;2023-03-19T01:55:58;7.25;;;4.05;;
64601;SDS011;68371;42.630;23.192;2023-03-19T01:58:29;7.28;;;3.78;;
64601;SDS011;68371;42.630;23.192;2023-03-19T02:00:56;10.15;;;4.53;;
64601;SDS011;68371;42.630;23.192;2023-03-19T02:03:23;13.07;;;5.05;;
64601;SDS011;68371;42.630;23.192;2023-03-19T02:05:51;8.27;;;4.35;;
64601;SDS011;68371;42.630;23.192;2023-03-19T02:08:22;14.88;;;6.18;;
64601;SDS011;68371;42.630;23.192;2023-03-19T02:10:50;16.73;;;6.18;;
64601;SDS011;68371;42.630;23.192;2023-03-19T02:13:20;14.50;;;6.20;;
64601;SDS011;68371;42.630;23.192;2023-03-19T02:15:47;15.90;;;5.20;;
64601;SDS011;68371;42.630;23.192;2023-03-19T02:18:14;16.83;;;6.55;;
64601;SDS011;68371;42.630;23.192;2023-03-19T02:20:45;23.60;;;7.97;;
64601;SDS011;68371;42.630;23.192;2023-03-19T02:23:19;29.85;;;9.50;;
64601;SDS011;68371;42.630;23.192;2023-03-19T02:26:03;27.02;;;10.13;;
64601;SDS011;68371;42.630;23.192;2023-03-19T02:28:33;32.92;;;11.57;;
64601;SDS011;68371;42.630;23.192;2023-03-19T02:31:03;21.13;;;8.60;;
64601;SDS011;68371;42.630;23.192;2023-03-19T02:33:30;18.83;;;6.75;;
64601;SDS011;68371;42.630;23.192;2023-03-19T02:35:56;12.55;;;6.10;;
64601;SDS011;68371;42.630;23.192;2023-03-19T02:38:24;13.02;;;6.32;;
64601;SDS011;68371;42.630;23.192;2023-03-19T02:40:54;15.93;;;7.30;;
64601;SDS011;68371;42.630;23.192;2023-03-19T02:43:26;16.88;;;5.85;;
64601;SDS011;68371;42.630;23.192;2023-03-19T02:45:53;17.50;;;6.28;;
64601;SDS011;68371;42.630;23.192;2023-03-19T02:48:20;26.42;;;6.95;;
64601;SDS011;68371;42.630;23.192;2023-03-19T02:50:47;13.32;;;6.57;;
64601;SDS011;68371;42.630;23.192;2023-03-19T02:53:13;16.60;;;6.85;;
64601;SDS011;68371;42.630;23.192;2023-03-19T02:55:42;16.65;;;6.70;;
64601;SDS011;68371;42.630;23.192;2023-03-19T02:58:09;12.00;;;5.80;;
64601;SDS011;68371;42.630;23.192;2023-03-19T03:00:38;14.48;;;6.25;;
64601;SDS011;68371;42.630;23.192;2023-03-19T03:03:06;17.38;;;7.10;;
64601;SDS011;68371;42.630;23.192;2023-03-19T03:05:33;14.05;;;6.18;;
64601;SDS011;68371;42.630;23.192;2023-03-19T03:08:01;14.80;;;5.78;;
64601;SDS011;68371;42.630;23.192;2023-03-19T03:10:28;10.90;;;4.88;;
64601;SDS011;68371;42.630;23.192;2023-03-19T03:12:55;11.90;;;4.53;;
64601;SDS011;68371;42.630;23.192;2023-03-19T03:15:22;12.80;;;4.65;;
64601;SDS011;68371;42.630;23.192;2023-03-19T03:17:51;9.05;;;4.20;;
64601;SDS011;68371;42.630;23.192;2023-03-19T03:20:18;8.20;;;4.13;;
64601;SDS011;68371;42.630;23.192;2023-03-19T03:22:45;8.77;;;4.07;;
64601;SDS011;68371;42.630;23.192;2023-03-19T03:25:14;7.35;;;4.15;;
64601;SDS011;68371;42.630;23.192;2023-03-19T03:27:41;9.50;;;4.18;;
64601;SDS011;68371;42.630;23.192;2023-03-19T03:30:08;7.80;;;4.07;;
64601;SDS011;68371;42.630;23.192;2023-03-19T03:32:36;11.93;;;4.40;;
64601;SDS011;68371;42.630;23.192;2023-03-19T03:35:06;11.13;;;5.47;;
64601;SDS011;68371;42.630;23.192;2023-03-19T03:37:34;9.13;;;4.25;;
64601;SDS011;68371;42.630;23.192;2023-03-19T03:40:01;9.20;;;4.78;;
64601;SDS011;68371;42.630;23.192;2023-03-19T03:42:32;8.45;;;4.60;;
64601;SDS011;68371;42.630;23.192;2023-03-19T03:44:58;10.63;;;4.68;;
64601;SDS011;68371;42.630;23.192;2023-03-19T03:47:25;9.25;;;4.72;;
64601;SDS011;68371;42.630;23.192;2023-03-19T03:49:52;12.82;;;5.43;;
64601;SDS011;68371;42.630;23.192;2023-03-19T03:52:21;14.55;;;5.60;;
64601;SDS011;68371;42.630;23.192;2023-03-19T03:54:48;11.38;;;5.25;;
64601;SDS011;68371;42.630;23.192;2023-03-19T03:57:16;12.50;;;5.70;;
64601;SDS011;68371;42.630;23.192;2023-03-19T03:59:43;9.27;;;5.35;;
64601;SDS011;68371;42.630;23.192;2023-03-19T04:02:09;13.02;;;4.68;;
64601;SDS011;68371;42.630;23.192;2023-03-19T04:04:37;16.25;;;6.28;;
64601;SDS011;68371;42.630;23.192;2023-03-19T04:07:03;22.55;;;9.60;;
64601;SDS011;68371;42.630;23.192;2023-03-19T04:09:32;22.88;;;9.90;;
64601;SDS011;68371;42.630;23.192;2023-03-19T04:11:58;22.48;;;8.25;;
64601;SDS011;68371;42.630;23.192;2023-03-19T04:14:26;14.63;;;6.32;;
64601;SDS011;68371;42.630;23.192;2023-03-19T04:16:52;8.82;;;4.60;;
64601;SDS011;68371;42.630;23.192;2023-03-19T04:19:21;9.85;;;4.05;;
64601;SDS011;68371;42.630;23.192;2023-03-19T04:21:48;8.80;;;4.60;;
64601;SDS011;68371;42.630;23.192;2023-03-19T04:24:15;11.50;;;4.68;;
64601;SDS011;68371;42.630;23.192;2023-03-19T04:26:43;12.13;;;5.38;;
64601;SDS011;68371;42.630;23.192;2023-03-19T04:29:11;6.70;;;3.83;;
64601;SDS011;68371;42.630;23.192;2023-03-19T04:31:37;7.25;;;3.75;;
64601;SDS011;68371;42.630;23.192;2023-03-19T04:34:04;7.07;;;3.55;;
64601;SDS011;68371;42.630;23.192;2023-03-19T04:36:31;7.68;;;3.90;;
64601;SDS011;68371;42.630;23.192;2023-03-19T04:38:58;9.60;;;4.43;;
64601;SDS011;68371;42.630;23.192;2023-03-19T04:41:25;9.57;;;3.83;;
64601;SDS011;68371;42.630;23.192;2023-03-19T04:43:54;9.70;;;4.78;;
64601;SDS011;68371;42.630;23.192;2023-03-19T04:46:20;8.70;;;4.38;;
64601;SDS011;68371;42.630;23.192;2023-03-19T04:48:49;9.77;;;4.25;;
64601;SDS011;68371;42.630;23.192;2023-03-19T04:51:16;7.47;;;3.88;;
64601;SDS011;68371;42.630;23.192;2023-03-19T04:53:45;12.18;;;5.15;;
64601;SDS011;68371;42.630;23.192;2023-03-19T04:56:13;12.27;;;4.80;;
64601;SDS011;68371;42.630;23.192;2023-03-19T04:58:40;116.43;;;34.00;;
64601;SDS011;68371;42.630;23.192;2023-03-19T05:01:08;31.40;;;11.52;;
64601;SDS011;68371;42.630;23.192;2023-03-19T05:03:35;37.90;;;10.90;;
64601;SDS011;68371;42.630;23.192;2023-03-19T05:06:02;27.00;;;9.95;;
64601;SDS011;68371;42.630;23.192;2023-03-19T05:08:29;38.78;;;13.32;;
64601;SDS011;68371;42.630;23.192;2023-03-19T05:10:56;46.75;;;15.05;;
64601;SDS011;68371;42.630;23.192;2023-03-19T05:13:24;55.42;;;20.48;;
64601;SDS011;68371;42.630;23.192;2023-03-19T05:15:51;62.00;;;23.95;;
64601;SDS011;68371;42.630;23.192;2023-03-19T05:18:22;40.00;;;16.48;;
64601;SDS011;68371;42.630;23.192;2023-03-19T05:20:50;33.58;;;14.63;;
64601;SDS011;68371;42.630;23.192;2023-03-19T05:23:17;32.78;;;13.43;;
64601;SDS011;68371;42.630;23.192;2023-03-19T05:25:44;26.52;;;11.10;;
64601;SDS011;68371;42.630;23.192;2023-03-19T05:28:11;54.85;;;20.50;;
64601;SDS011;68371;42.630;23.192;2023-03-19T05:30:38;41.65;;;15.07;;
64601;SDS011;68371;42.630;23.192;2023-03-19T05:33:06;43.85;;;17.83;;
64601;SDS011;68371;42.630;23.192;2023-03-19T05:35:35;37.08;;;14.93;;
64601;SDS011;68371;42.630;23.192;2023-03-19T05:38:03;42.75;;;16.48;;
64601;SDS011;68371;42.630;23.192;2023-03-19T05:40:30;42.03;;;16.98;;
64601;SDS011;68371;42.630;23.192;2023-03-19T05:42:58;36.35;;;15.80;;
64601;SDS011;68371;42.630;23.192;2023-03-19T05:45:26;37.90;;;17.05;;
64601;SDS011;68371;42.630;23.192;2023-03-19T05:47:53;45.42;;;18.92;;
64601;SDS011;68371;42.630;23.192;2023-03-19T05:50:21;41.92;;;18.45;;
64601;SDS011;68371;42.630;23.192;2023-03-19T05:52:49;62.80;;;26.77;;
64601;SDS011;68371;42.630;23.192;2023-03-19T05:55:16;59.22;;;23.60;;
64601;SDS011;68371;42.630;23.192;2023-03-19T05:57:43;51.40;;;20.73;;
64601;SDS011;68371;42.630;23.192;2023-03-19T06:00:11;50.15;;;19.73;;
64601;SDS011;68371;42.630;23.192;2023-03-19T06:02:39;41.15;;;17.55;;
64601;SDS011;68371;42.630;23.192;2023-03-19T06:05:06;45.05;;;19.15;;
64601;SDS011;68371;42.630;23.192;2023-03-19T06:07:33;47.83;;;20.10;;
64601;SDS011;68371;42.630;23.192;2023-03-19T06:10:01;41.80;;;18.15;;
64601;SDS011;68371;42.630;23.192;2023-03-19T06:12:29;36.88;;;16.38;;
64601;SDS011;68371;42.630;23.192;2023-03-19T06:14:57;34.83;;;15.13;;
64601;SDS011;68371;42.630;23.192;2023-03-19T06:17:24;29.67;;;14.80;;
64601;SDS011;68371;42.630;23.192;2023-03-19T06:19:51;30.42;;;13.73;;
64601;SDS011;68371;42.630;23.192;2023-03-19T06:22:18;33.50;;;15.43;;
64601;SDS011;68371;42.630;23.192;2023-03-19T06:24:44;37.22;;;15.90;;
64601;SDS011;68371;42.630;23.192;2023-03-19T06:27:12;26.13;;;11.25;;
64601;SDS011;68371;42.630;23.192;2023-03-19T06:29:39;21.33;;;9.82;;
64601;SDS011;68371;42.630;23.192;2023-03-19T06:32:06;27.95;;;11.23;;
64601;SDS011;68371;42.630;23.192;2023-03-19T06:34:33;16.35;;;5.60;;
64601;SDS011;68371;42.630;23.192;2023-03-19T06:37:00;11.70;;;5.20;;
64601;SDS011;68371;42.630;23.192;2023-03-19T06:39:27;12.40;;;4.97;;
64601;SDS011;68371;42.630;23.192;2023-03-19T06:41:55;11.88;;;4.90;;
64601;SDS011;68371;42.630;23.192;2023-03-19T06:44:23;10.23;;;3.50;;
64601;SDS011;68371;42.630;23.192;2023-03-19T06:46:50;7.90;;;3.42;;
64601;SDS011;68371;42.630;23.192;2023-03-19T06:49:17;8.57;;;3.42;;
64601;SDS011;68371;42.630;23.192;2023-03-19T06:51:44;7.18;;;3.70;;
64601;SDS011;68371;42.630;23.192;2023-03-19T06:54:10;13.75;;;4.03;;
64601;SDS011;68371;42.630;23.192;2023-03-19T06:56:37;15.95;;;6.53;;
64601;SDS011;68371;42.630;23.192;2023-03-19T06:59:04;16.42;;;5.95;;
64601;SDS011;68371;42.630;23.192;2023-03-19T07:01:32;17.60;;;5.30;;
64601;SDS011;68371;42.630;23.192;2023-03-19T07:04:03;10.25;;;4.40;;
64601;SDS011;68371;42.630;23.192;2023-03-19T07:06:30;12.13;;;5.10;;
64601;SDS011;68371;42.630;23.192;2023-03-19T07:08:58;12.35;;;5.22;;
64601;SDS011;68371;42.630;23.192;2023-03-19T07:11:27;11.43;;;4.50;;
64601;SDS011;68371;42.630;23.192;2023-03-19T07:13:54;9.57;;;4.53;;
64601;SDS011;68371;42.630;23.192;2023-03-19T07:16:20;13.35;;;4.28;;
64601;SDS011;68371;42.630;23.192;2023-03-19T07:18:48;11.60;;;4.57;;
64601;SDS011;68371;42.630;23.192;2023-03-19T07:21:15;10.50;;;3.97;;
64601;SDS011;68371;42.630;23.192;2023-03-19T07:23:42;10.43;;;3.25;;
64601;SDS011;68371;42.630;23.192;2023-03-19T07:26:10;10.50;;;4.05;;
64601;SDS011;68371;42.630;23.192;2023-03-19T07:28:37;10.25;;;4.70;;
64601;SDS011;68371;42.630;23.192;2023-03-19T07:31:04;9.48;;;3.67;;
64601;SDS011;68371;42.630;23.192;2023-03-19T07:33:32;11.98;;;4.10;;
64601;SDS011;68371;42.630;23.192;2023-03-19T07:36:00;15.25;;;3.60;;
64601;SDS011;68371;42.630;23.192;2023-03-19T07:38:28;7.38;;;2.90;;
64601;SDS011;68371;42.630;23.192;2023-03-19T07:40:57;7.75;;;3.20;;
64601;SDS011;68371;42.630;23.192;2023-03-19T07:43:24;7.07;;;2.78;;
64601;SDS011;68371;42.630;23.192;2023-03-19T07:45:50;9.02;;;3.97;;
64601;SDS011;68371;42.630;23.192;2023-03-19T07:48:17;9.82;;;3.70;;
64601;SDS011;68371;42.630;23.192;2023-03-19T07:50:44;10.05;;;3.63;;
64601;SDS011;68371;42.630;23.192;2023-03-19T07:53:12;9.27;;;4.10;;
64601;SDS011;68371;42.630;23.192;2023-03-19T07:55:39;10.88;;;3.65;;
64601;SDS011;68371;42.630;23.192;2023-03-19T07:58:05;13.30;;;4.90;;
64601;SDS011;68371;42.630;23.192;2023-03-19T08:00:32;13.98;;;4.07;;
64601;SDS011;68371;42.630;23.192;2023-03-19T08:02:59;12.00;;;5.65;;
64601;SDS011;68371;42.630;23.192;2023-03-19T08:05:26;17.48;;;5.65;;
64601;SDS011;68371;42.630;23.192;2023-03-19T08:07:52;13.50;;;6.55;;
64601;SDS011;68371;42.630;23.192;2023-03-19T08:10:21;13.07;;;6.13;;
64601;SDS011;68371;42.630;23.192;2023-03-19T08:12:47;13.25;;;5.47;;
64601;SDS011;68371;42.630;23.192;2023-03-19T08:15:14;12.10;;;5.68;;
64601;SDS011;68371;42.630;23.192;2023-03-19T08:17:41;11.70;;;4.90;;
64601;SDS011;68371;42.630;23.192;2023-03-19T08:20:08;10.85;;;5.45;;
64601;SDS011;68371;42.630;23.192;2023-03-19T08:22:37;10.63;;;5.07;;
64601;SDS011;68371;42.630;23.192;2023-03-19T08:25:06;13.48;;;6.82;;
64601;SDS011;68371;42.630;23.192;2023-03-19T08:27:35;16.17;;;6.97;;
64601;SDS011;68371;42.630;23.192;2023-03-19T08:30:04;14.30;;;6.55;;
64601;SDS011;68371;42.630;23.192;2023-03-19T08:32:34;10.30;;;5.93;;
64601;SDS011;68371;42.630;23.192;2023-03-19T08:35:01;12.50;;;6.82;;
64601;SDS011;68371;42.630;23.192;2023-03-19T08:37:30;23.38;;;8.25;;
64601;SDS011;68371;42.630;23.192;2023-03-19T08:39:56;15.57;;;6.72;;
64601;SDS011;68371;42.630;23.192;2023-03-19T08:42:23;11.93;;;6.72;;
64601;SDS011;68371;42.630;23.192;2023-03-19T08:44:51;14.65;;;7.60;;
64601;SDS011;68371;42.630;23.192;2023-03-19T08:47:18;12.98;;;6.63;;
64601;SDS011;68371;42.630;23.192;2023-03-19T08:49:48;13.55;;;6.22;;
64601;SDS011;68371;42.630;23.192;2023-03-19T08:52:15;12.65;;;6.70;;
64601;SDS011;68371;42.630;23.192;2023-03-19T08:54:42;12.25;;;6.32;;
64601;SDS011;68371;42.630;23.192;2023-03-19T08:57:09;17.40;;;6.63;;
64601;SDS011;68371;42.630;23.192;2023-03-19T08:59:36;16.38;;;7.05;;
64601;SDS011;68371;42.630;23.192;2023-03-19T09:02:09;15.15;;;5.90;;
64601;SDS011;68371;42.630;23.192;2023-03-19T09:04:39;12.88;;;5.75;;
64601;SDS011;68371;42.630;23.192;2023-03-19T09:07:06;10.10;;;5.68;;
64601;SDS011;68371;42.630;23.192;2023-03-19T09:09:37;13.30;;;6.53;;
64601;SDS011;68371;42.630;23.192;2023-03-19T09:12:04;10.15;;;4.95;;
64601;SDS011;68371;42.630;23.192;2023-03-19T09:14:32;13.10;;;5.80;;
64601;SDS011;68371;42.630;23.192;2023-03-19T09:17:00;10.90;;;5.47;;
64601;SDS011;68371;42.630;23.192;2023-03-19T09:19:28;13.20;;;6.25;;
64601;SDS011;68371;42.630;23.192;2023-03-19T09:21:55;15.95;;;6.00;;
64601;SDS011;68371;42.630;23.192;2023-03-19T09:24:22;7.47;;;4.18;;
64601;SDS011;68371;42.630;23.192;2023-03-19T09:26:48;10.73;;;5.45;;
64601;SDS011;68371;42.630;23.192;2023-03-19T09:29:15;8.85;;;3.72;;
64601;SDS011;68371;42.630;23.192;2023-03-19T09:31:42;7.07;;;3.83;;
64601;SDS011;68371;42.630;23.192;2023-03-19T09:34:08;9.13;;;4.40;;
64601;SDS011;68371;42.630;23.192;2023-03-19T09:36:37;12.23;;;4.68;;
64601;SDS011;68371;42.630;23.192;2023-03-19T09:39:04;8.10;;;3.22;;
64601;SDS011;68371;42.630;23.192;2023-03-19T09:41:34;4.95;;;1.90;;
64601;SDS011;68371;42.630;23.192;2023-03-19T09:44:11;7.38;;;2.08;;
64601;SDS011;68371;42.630;23.192;2023-03-19T09:46:40;5.30;;;2.10;;
64601;SDS011;68371;42.630;23.192;2023-03-19T09:49:12;4.40;;;2.13;;
64601;SDS011;68371;42.630;23.192;2023-03-19T09:51:45;8.20;;;2.70;;
64601;SDS011;68371;42.630;23.192;2023-03-19T09:54:21;3.80;;;1.90;;
64601;SDS011;68371;42.630;23.192;2023-03-19T09:56:55;7.13;;;2.78;;
64601;SDS011;68371;42.630;23.192;2023-03-19T09:59:22;4.30;;;2.30;;
64601;SDS011;68371;42.630;23.192;2023-03-19T10:01:52;7.68;;;2.88;;
64601;SDS011;68371;42.630;23.192;2023-03-19T10:04:36;9.30;;;3.72;;
64601;SDS011;68371;42.630;23.192;2023-03-19T10:07:10;5.95;;;2.97;;
64601;SDS011;68371;42.630;23.192;2023-03-19T10:09:52;7.07;;;3.17;;
64601;SDS011;68371;42.630;23.192;2023-03-19T10:12:36;4.65;;;2.03;;
64601;SDS011;68371;42.630;23.192;2023-03-19T10:15:15;6.25;;;2.75;;
64601;SDS011;68371;42.630;23.192;2023-03-19T10:17:46;5.00;;;2.67;;
64601;SDS011;68371;42.630;23.192;2023-03-19T10:20:21;10.40;;;2.90;;
64601;SDS011;68371;42.630;23.192;2023-03-19T10:22:58;8.82;;;3.38;;
64601;SDS011;68371;42.630;23.192;2023-03-19T10:25:30;6.70;;;3.45;;
64601;SDS011;68371;42.630;23.192;2023-03-19T10:28:06;7.18;;;3.47;;
64601;SDS011;68371;42.630;23.192;2023-03-19T10:30:39;8.10;;;3.88;;
64601;SDS011;68371;42.630;23.192;2023-03-19T10:33:10;14.75;;;6.63;;
64601;SDS011;68371;42.630;23.192;2023-03-19T10:35:45;10.00;;;4.22;;
64601;SDS011;68371;42.630;23.192;2023-03-19T10:38:20;7.05;;;3.22;;
64601;SDS011;68371;42.630;23.192;2023-03-19T10:40:51;11.02;;;3.60;;
64601;SDS011;68371;42.630;23.192;2023-03-19T10:43:30;7.85;;;3.60;;
64601;SDS011;68371;42.630;23.192;2023-03-19T10:45:59;11.18;;;3.38;;
64601;SDS011;68371;42.630;23.192;2023-03-19T10:48:26;16.45;;;6.40;;
64601;SDS011;68371;42.630;23.192;2023-03-19T10:50:54;39.92;;;12.57;;
64601;SDS011;68371;42.630;23.192;2023-03-19T10:53:29;13.20;;;4.00;;
64601;SDS011;68371;42.630;23.192;2023-03-19T10:56:00;12.07;;;3.40;;
64601;SDS011;68371;42.630;23.192;2023-03-19T10:58:32;12.23;;;5.38;;
64601;SDS011;68371;42.630;23.192;2023-03-19T11:01:04;36.70;;;12.97;;
64601;SDS011;68371;42.630;23.192;2023-03-19T11:03:35;11.38;;;3.78;;
64601;SDS011;68371;42.630;23.192;2023-03-19T11:06:15;7.88;;;2.88;;
64601;SDS011;68371;42.630;23.192;2023-03-19T11:08:49;6.65;;;3.08;;
64601;SDS011;68371;42.630;23.192;2023-03-19T11:11:24;13.38;;;3.28;;
64601;SDS011;68371;42.630;23.192;2023-03-19T11:13:52;6.85;;;2.95;;
64601;SDS011;68371;42.630;23.192;2023-03-19T11:16:19;14.05;;;4.18;;
64601;SDS011;68371;42.630;23.192;2023-03-19T11:18:46;12.52;;;5.80;;
64601;SDS011;68371;42.630;23.192;2023-03-19T11:21:22;11.55;;;6.22;;
64601;SDS011;68371;42.630;23.192;2023-03-19T11:23:52;6.47;;;2.90;;
64601;SDS011;68371;42.630;23.192;2023-03-19T11:26:25;13.00;;;3.97;;
64601;SDS011;68371;42.630;23.192;2023-03-19T11:28:52;10.23;;;3.70;;
64601;SDS011;68371;42.630;23.192;2023-03-19T11:31:22;6.57;;;3.15;;
64601;SDS011;68371;42.630;23.192;2023-03-19T11:34:04;7.97;;;3.22;;
64601;SDS011;68371;42.630;23.192;2023-03-19T11:36:43;9.40;;;2.80;;
64601;SDS011;68371;42.630;23.192;2023-03-19T11:39:23;7.07;;;3.03;;
64601;SDS011;68371;42.630;23.192;2023-03-19T11:41:58;11.20;;;5.60;;
64601;SDS011;68371;42.630;23.192;2023-03-19T11:44:51;7.30;;;3.38;;
64601;SDS011;68371;42.630;23.192;2023-03-19T11:47:27;19.42;;;7.15;;
64601;SDS011;68371;42.630;23.192;2023-03-19T11:50:08;17.08;;;6.63;;
64601;SDS011;68371;42.630;23.192;2023-03-19T11:52:52;14.27;;;6.97;;
64601;SDS011;68371;42.630;23.192;2023-03-19T11:55:29;11.35;;;5.88;;
64601;SDS011;68371;42.630;23.192;2023-03-19T11:58:03;28.40;;;15.00;;
64601;SDS011;68371;42.630;23.192;2023-03-19T12:00:45;17.38;;;9.55;;
64601;SDS011;68371;42.630;23.192;2023-03-19T12:06:08;11.70;;;6.57;;
64601;SDS011;68371;42.630;23.192;2023-03-19T12:08:46;14.05;;;5.50;;
64601;SDS011;68371;42.630;23.192;2023-03-19T12:11:19;55.50;;;25.80;;
64601;SDS011;68371;42.630;23.192;2023-03-19T12:13:58;13.75;;;7.13;;
64601;SDS011;68371;42.630;23.192;2023-03-19T12:16:35;18.95;;;8.43;;
64601;SDS011;68371;42.630;23.192;2023-03-19T12:19:16;47.65;;;20.40;;
64601;SDS011;68371;42.630;23.192;2023-03-19T12:22:05;12.02;;;6.35;;
64601;SDS011;68371;42.630;23.192;2023-03-19T12:24:42;23.70;;;9.77;;
64601;SDS011;68371;42.630;23.192;2023-03-19T12:27:26;16.45;;;7.53;;
64601;SDS011;68371;42.630;23.192;2023-03-19T12:30:01;12.93;;;6.70;;
64601;SDS011;68371;42.630;23.192;2023-03-19T12:35:30;11.35;;;6.55;;
64601;SDS011;68371;42.630;23.192;2023-03-19T12:38:03;13.55;;;8.07;;
64601;SDS011;68371;42.630;23.192;2023-03-19T12:40:36;12.88;;;6.78;;
64601;SDS011;68371;42.630;23.192;2023-03-19T12:43:10;63.83;;;34.42;;
64601;SDS011;68371;42.630;23.192;2023-03-19T12:45:44;14.15;;;7.70;;
64601;SDS011;68371;42.630;23.192;2023-03-19T12:48:16;11.02;;;6.55;;
64601;SDS011;68371;42.630;23.192;2023-03-19T12:50:48;15.80;;;7.65;;
64601;SDS011;68371;42.630;23.192;2023-03-19T12:53:24;17.38;;;8.50;;
64601;SDS011;68371;42.630;23.192;2023-03-19T12:55:56;15.07;;;8.35;;
64601;SDS011;68371;42.630;23.192;2023-03-19T12:58:36;11.20;;;7.43;;
64601;SDS011;68371;42.630;23.192;2023-03-19T13:01:10;11.05;;;6.97;;
64601;SDS011;68371;42.630;23.192;2023-03-19T13:03:40;14.48;;;9.68;;
64601;SDS011;68371;42.630;23.192;2023-03-19T13:06:18;12.13;;;7.07;;
64601;SDS011;68371;42.630;23.192;2023-03-19T13:08:48;15.07;;;7.22;;
64601;SDS011;68371;42.630;23.192;2023-03-19T13:11:24;13.27;;;7.22;;
64601;SDS011;68371;42.630;23.192;2023-03-19T13:14:05;11.27;;;6.70;;
64601;SDS011;68371;42.630;23.192;2023-03-19T13:16:42;16.73;;;9.02;;
64601;SDS011;68371;42.630;23.192;2023-03-19T13:19:17;21.90;;;12.50;;
64601;SDS011;68371;42.630;23.192;2023-03-19T13:21:50;24.15;;;13.27;;
64601;SDS011;68371;42.630;23.192;2023-03-19T13:24:22;28.65;;;12.40;;
64601;SDS011;68371;42.630;23.192;2023-03-19T13:26:52;18.73;;;8.20;;
64601;SDS011;68371;42.630;23.192;2023-03-19T13:29:23;11.65;;;6.53;;
64601;SDS011;68371;42.630;23.192;2023-03-19T13:31:51;14.87;;;7.60;;
64601;SDS011;68371;42.630;23.192;2023-03-19T13:34:20;14.73;;;7.60;;
64601;SDS011;68371;42.630;23.192;2023-03-19T13:36:52;17.05;;;8.52;;
64601;SDS011;68371;42.630;23.192;2023-03-19T13:39:24;34.63;;;18.38;;
64601;SDS011;68371;42.630;23.192;2023-03-19T13:44:40;20.75;;;9.50;;
64601;SDS011;68371;42.630;23.192;2023-03-19T13:56:02;13.70;;;6.60;;
64601;SDS011;68371;42.630;23.192;2023-03-19T13:58:43;23.63;;;8.67;;
64601;SDS011;68371;42.630;23.192;2023-03-19T14:04:14;13.70;;;7.28;;
64601;SDS011;68371;42.630;23.192;2023-03-19T14:06:45;11.82;;;7.25;;
64601;SDS011;68371;42.630;23.192;2023-03-19T14:12:10;9.88;;;5.75;;
64601;SDS011;68371;42.630;23.192;2023-03-19T14:14:47;9.40;;;5.13;;
64601;SDS011;68371;42.630;23.192;2023-03-19T14:17:19;9.32;;;5.13;;
64601;SDS011;68371;42.630;23.192;2023-03-19T14:19:49;12.15;;;6.35;;
64601;SDS011;68371;42.630;23.192;2023-03-19T14:22:18;10.07;;;5.80;;
64601;SDS011;68371;42.630;23.192;2023-03-19T14:27:30;10.77;;;6.00;;
64601;SDS011;68371;42.630;23.192;2023-03-19T14:32:33;17.23;;;9.35;;
64601;SDS011;68371;42.630;23.192;2023-03-19T14:35:05;15.57;;;7.68;;
64601;SDS011;68371;42.630;23.192;2023-03-19T14:37:39;16.05;;;8.45;;
64601;SDS011;68371;42.630;23.192;2023-03-19T14:40:14;18.45;;;8.68;;
64601;SDS011;68371;42.630;23.192;2023-03-19T14:42:46;34.28;;;12.27;;
64601;SDS011;68371;42.630;23.192;2023-03-19T14:45:30;21.33;;;9.00;;
64601;SDS011;68371;42.630;23.192;2023-03-19T14:51:27;59.15;;;16.25;;
64601;SDS011;68371;42.630;23.192;2023-03-19T14:54:11;10.10;;;6.40;;
64601;SDS011;68371;42.630;23.192;2023-03-19T14:56:48;14.27;;;6.40;;
64601;SDS011;68371;42.630;23.192;2023-03-19T14:59:15;12.43;;;5.85;;
64601;SDS011;68371;42.630;23.192;2023-03-19T15:01:43;33.78;;;11.38;;
64601;SDS011;68371;42.630;23.192;2023-03-19T15:04:14;19.85;;;8.23;;
64601;SDS011;68371;42.630;23.192;2023-03-19T15:06:44;13.95;;;6.00;;
64601;SDS011;68371;42.630;23.192;2023-03-19T15:09:17;9.80;;;5.55;;